Time;durP1;ratioP1;P1;durP2;ratioP2;P2;SDS_P1;SDS_P2;PMS_P1;PMS_P2;Temp;Humidity;BMP_temperature;BMP_pressure;BME280_temperature;BME280_humidity;BME280_pressure;Samples;Min_cycle;Max_cycle;Signal;HPM_P1;HPM_P2
2022/12/12 00:02:24;;;;;;;54.88;23.75;;;;;;;;;;5097646;28;20048;-67
2022/12/12 00:04:50;;;;;;;49.05;21.85;;;;;;;;;;5091976;28;20039;-67
2022/12/12 00:07:16;;;;;;;48.58;22.33;;;;;;;;;;5101406;28;20052;-67
2022/12/12 00:09:42;;;;;;;52.03;23.70;;;;;;;;;;5074904;28;20047;-67
2022/12/12 00:12:09;;;;;;;50.50;23.27;;;;;;;;;;5078097;28;20047;-67
2022/12/12 00:14:35;;;;;;;48.75;22.85;;;;;;;;;;5084280;28;20408;-67
2022/12/12 00:17:01;;;;;;;48.67;22.50;;;;;;;;;;5097004;28;20812;-67
2022/12/12 00:19:27;;;;;;;49.67;24.42;;;;;;;;;;5096161;28;20469;-67
2022/12/12 00:21:53;;;;;;;51.35;23.52;;;;;;;;;;5076446;28;20039;-67
2022/12/12 00:24:19;;;;;;;54.33;23.23;;;;;;;;;;5076768;28;20044;-67
2022/12/12 00:26:46;;;;;;;52.95;23.58;;;;;;;;;;5081566;28;20044;-67
2022/12/12 00:29:12;;;;;;;53.22;25.08;;;;;;;;;;5079695;28;20195;-67
2022/12/12 00:31:39;;;;;;;53.25;24.50;;;;;;;;;;5080293;28;20051;-67
2022/12/12 00:34:05;;;;;;;58.72;25.17;;;;;;;;;;5078884;28;20036;-67
2022/12/12 00:36:31;;;;;;;54.13;25.17;;;;;;;;;;5080196;28;20240;-67
2022/12/12 00:38:58;;;;;;;56.55;25.45;;;;;;;;;;5079854;28;20538;-67
2022/12/12 00:41:25;;;;;;;59.22;24.50;;;;;;;;;;5078827;28;20431;-67
2022/12/12 00:43:51;;;;;;;54.22;24.55;;;;;;;;;;5098416;28;20043;-67
2022/12/12 00:46:18;;;;;;;58.38;24.83;;;;;;;;;;5079722;28;20107;-67
2022/12/12 00:48:45;;;;;;;50.88;23.85;;;;;;;;;;5097763;28;20035;-67
2022/12/12 00:51:14;;;;;;;53.25;24.38;;;;;;;;;;5076532;28;20062;-67
2022/12/12 00:53:40;;;;;;;57.13;25.98;;;;;;;;;;5098313;28;20039;-67
2022/12/12 00:56:06;;;;;;;55.42;25.20;;;;;;;;;;5097514;28;21793;-67
2022/12/12 00:58:33;;;;;;;54.53;24.45;;;;;;;;;;5096760;28;20039;-66
2022/12/12 01:01:06;;;;;;;57.22;25.25;;;;;;;;;;5082329;28;20144;-67
2022/12/12 01:03:33;;;;;;;51.90;22.58;;;;;;;;;;5097621;28;20092;-67
2022/12/12 01:06:00;;;;;;;57.97;25.75;;;;;;;;;;5098142;28;20039;-67
2022/12/12 01:08:26;;;;;;;51.58;24.02;;;;;;;;;;5095915;28;20050;-67
2022/12/12 01:10:52;;;;;;;52.40;25.10;;;;;;;;;;5097404;28;20035;-67
2022/12/12 01:13:18;;;;;;;56.17;22.60;;;;;;;;;;5075682;28;20048;-67
2022/12/12 01:15:45;;;;;;;52.22;23.65;;;;;;;;;;5099648;28;20127;-67
2022/12/12 01:18:11;;;;;;;51.47;23.75;;;;;;;;;;5081845;28;20047;-67
2022/12/12 01:20:37;;;;;;;49.42;25.13;;;;;;;;;;5097496;28;20480;-67
2022/12/12 01:23:03;;;;;;;55.40;24.75;;;;;;;;;;5098904;28;20854;-66
2022/12/12 01:25:29;;;;;;;51.42;22.27;;;;;;;;;;5097900;28;20048;-66
2022/12/12 01:27:55;;;;;;;48.78;21.55;;;;;;;;;;5081467;28;20054;-66
2022/12/12 01:30:22;;;;;;;53.08;24.05;;;;;;;;;;5078597;28;20039;-66
2022/12/12 01:32:48;;;;;;;48.13;23.00;;;;;;;;;;5091252;28;20372;-66
2022/12/12 01:35:14;;;;;;;48.67;22.80;;;;;;;;;;5096061;28;20051;-66
2022/12/12 01:37:41;;;;;;;51.28;23.55;;;;;;;;;;5095057;28;20423;-66
2022/12/12 01:40:11;;;;;;;50.70;22.45;;;;;;;;;;5095112;28;20196;-66
2022/12/12 01:42:37;;;;;;;50.92;22.45;;;;;;;;;;5095994;28;20086;-66
2022/12/12 01:45:03;;;;;;;45.33;22.00;;;;;;;;;;5096237;28;21067;-66
2022/12/12 01:47:29;;;;;;;44.15;21.83;;;;;;;;;;5078317;28;20075;-66
2022/12/12 01:50:00;;;;;;;50.95;21.67;;;;;;;;;;5099089;28;20092;-66
2022/12/12 01:52:27;;;;;;;41.97;21.08;;;;;;;;;;5091708;28;20048;-66
2022/12/12 01:54:55;;;;;;;45.55;20.65;;;;;;;;;;5093475;28;20116;-66
2022/12/12 01:57:26;;;;;;;42.03;20.17;;;;;;;;;;5092931;28;20036;-67
2022/12/12 01:59:53;;;;;;;47.80;22.13;;;;;;;;;;5079274;28;20063;-66
2022/12/12 02:02:19;;;;;;;45.22;22.55;;;;;;;;;;5076493;28;20085;-67
2022/12/12 02:04:45;;;;;;;49.20;21.92;;;;;;;;;;5094487;28;20044;-66
2022/12/12 02:07:11;;;;;;;47.33;21.48;;;;;;;;;;5096407;28;20104;-66
2022/12/12 02:09:38;;;;;;;43.42;20.73;;;;;;;;;;5095545;28;20040;-66
2022/12/12 02:12:04;;;;;;;52.15;23.25;;;;;;;;;;5078243;28;20174;-66
2022/12/12 02:14:33;;;;;;;44.92;21.67;;;;;;;;;;5095956;28;20043;-66
2022/12/12 02:17:05;;;;;;;43.00;20.50;;;;;;;;;;5095741;28;20044;-66
2022/12/12 02:19:50;;;;;;;47.40;21.27;;;;;;;;;;5078408;28;20035;-66
2022/12/12 02:22:33;;;;;;;44.60;21.20;;;;;;;;;;5093370;28;20058;-66
2022/12/12 02:25:05;;;;;;;43.17;21.77;;;;;;;;;;5093357;28;20039;-66
2022/12/12 02:27:39;;;;;;;50.42;23.05;;;;;;;;;;5091606;28;20360;-67
2022/12/12 02:30:08;;;;;;;45.78;20.73;;;;;;;;;;5084838;28;20113;-67
2022/12/12 02:32:56;;;;;;;47.72;21.27;;;;;;;;;;5096370;28;20075;-66
2022/12/12 02:35:40;;;;;;;46.45;21.23;;;;;;;;;;5058313;28;20039;-67
2022/12/12 02:38:14;;;;;;;43.83;20.13;;;;;;;;;;5097569;28;20039;-66
2022/12/12 02:40:46;;;;;;;50.67;22.27;;;;;;;;;;5098654;28;20058;-66
2022/12/12 02:43:18;;;;;;;47.30;21.85;;;;;;;;;;5078412;28;20044;-67
2022/12/12 02:45:56;;;;;;;52.55;22.52;;;;;;;;;;5097858;28;20359;-66
2022/12/12 02:48:26;;;;;;;50.65;23.75;;;;;;;;;;5077230;28;20051;-66
2022/12/12 02:50:53;;;;;;;51.20;22.70;;;;;;;;;;5075444;28;20035;-66
2022/12/12 02:53:22;;;;;;;53.45;22.90;;;;;;;;;;5079546;28;20043;-67
2022/12/12 02:55:48;;;;;;;53.50;24.88;;;;;;;;;;5078605;28;21847;-66
2022/12/12 02:58:15;;;;;;;52.95;23.85;;;;;;;;;;5091650;28;20059;-66
2022/12/12 03:00:51;;;;;;;46.83;22.38;;;;;;;;;;5095707;28;20044;-67
2022/12/12 03:09:15;;;;;;;52.60;23.38;;;;;;;;;;5092477;28;20044;-66
2022/12/12 03:11:57;;;;;;;52.40;23.58;;;;;;;;;;5092515;28;20047;-66
2022/12/12 03:14:26;;;;;;;52.40;23.27;;;;;;;;;;5094823;28;20043;-66
2022/12/12 03:17:00;;;;;;;49.45;24.02;;;;;;;;;;5095888;28;20067;-66
2022/12/12 03:19:30;;;;;;;50.33;21.92;;;;;;;;;;5093292;28;20055;-66
2022/12/12 03:22:15;;;;;;;49.05;23.13;;;;;;;;;;5092531;28;20043;-66
2022/12/12 03:24:41;;;;;;;53.75;23.60;;;;;;;;;;5096847;28;20983;-67
2022/12/12 03:27:10;;;;;;;46.00;22.00;;;;;;;;;;5077639;28;20040;-67
2022/12/12 03:29:40;;;;;;;49.47;23.02;;;;;;;;;;5098518;28;20404;-67
2022/12/12 03:32:08;;;;;;;51.35;22.90;;;;;;;;;;5096548;28;20067;-67
2022/12/12 03:34:39;;;;;;;51.95;22.30;;;;;;;;;;5095723;28;20332;-67
2022/12/12 03:37:06;;;;;;;55.72;23.65;;;;;;;;;;5092246;28;20051;-67
2022/12/12 03:39:37;;;;;;;52.03;23.52;;;;;;;;;;5076238;28;20059;-67
2022/12/12 03:42:08;;;;;;;51.33;24.38;;;;;;;;;;5095585;28;21247;-66
2022/12/12 03:44:39;;;;;;;55.05;23.17;;;;;;;;;;5092612;28;20051;-67
2022/12/12 03:47:07;;;;;;;46.85;22.73;;;;;;;;;;5096262;28;20048;-66
2022/12/12 03:49:36;;;;;;;49.58;24.67;;;;;;;;;;5098757;28;20479;-67
2022/12/12 03:52:04;;;;;;;52.47;25.05;;;;;;;;;;5096907;28;20093;-66
2022/12/12 03:54:36;;;;;;;48.35;22.13;;;;;;;;;;5095726;28;20036;-66
2022/12/12 03:57:11;;;;;;;51.17;22.48;;;;;;;;;;5076556;28;20363;-66
2022/12/12 04:00:07;;;;;;;46.17;22.58;;;;;;;;;;5095433;28;20167;-66
2022/12/12 04:02:37;;;;;;;47.83;22.10;;;;;;;;;;5097408;28;20047;-66
2022/12/12 04:05:22;;;;;;;46.88;23.25;;;;;;;;;;5083396;28;20100;-66
2022/12/12 04:07:57;;;;;;;46.63;21.25;;;;;;;;;;5099659;28;20087;-66
2022/12/12 04:13:12;;;;;;;48.22;21.30;;;;;;;;;;5079549;28;20044;-67
2022/12/12 04:15:40;;;;;;;42.97;20.63;;;;;;;;;;5076370;28;20039;-67
2022/12/12 04:18:13;;;;;;;48.95;23.15;;;;;;;;;;5097592;28;20039;-67
2022/12/12 04:23:48;;;;;;;47.17;21.90;;;;;;;;;;5098719;28;20043;-67
2022/12/12 04:26:39;;;;;;;45.53;23.10;;;;;;;;;;5065773;28;20040;-66
2022/12/12 04:29:12;;;;;;;51.10;22.90;;;;;;;;;;5097288;28;20047;-67
2022/12/12 04:31:41;;;;;;;47.80;21.92;;;;;;;;;;5080446;28;20092;-67
2022/12/12 04:34:12;;;;;;;44.05;21.40;;;;;;;;;;5077785;28;20108;-66
2022/12/12 04:36:39;;;;;;;47.78;21.48;;;;;;;;;;5097026;28;20051;-66
2022/12/12 04:39:06;;;;;;;42.67;20.48;;;;;;;;;;5093569;28;21417;-67
2022/12/12 04:41:34;;;;;;;49.05;21.50;;;;;;;;;;5075887;28;20062;-66
2022/12/12 04:44:02;;;;;;;45.97;22.25;;;;;;;;;;5077263;28;20031;-67
2022/12/12 04:46:32;;;;;;;50.60;23.67;;;;;;;;;;5098938;28;20144;-66
2022/12/12 04:49:01;;;;;;;46.42;23.73;;;;;;;;;;5097550;28;20163;-67
2022/12/12 04:51:34;;;;;;;47.40;21.80;;;;;;;;;;5095346;28;20031;-66
2022/12/12 04:54:09;;;;;;;49.05;23.25;;;;;;;;;;5093498;28;20070;-67
2022/12/12 04:56:36;;;;;;;49.80;24.27;;;;;;;;;;5077976;28;20058;-66
2022/12/12 04:59:04;;;;;;;45.33;21.95;;;;;;;;;;5095572;28;20197;-67
2022/12/12 05:01:40;;;;;;;43.42;22.80;;;;;;;;;;5096885;28;20110;-66
2022/12/12 05:04:09;;;;;;;43.53;22.60;;;;;;;;;;5078733;28;20180;-66
2022/12/12 05:06:40;;;;;;;41.13;21.48;;;;;;;;;;5078269;28;20518;-67
2022/12/12 05:09:07;;;;;;;39.33;20.30;;;;;;;;;;5096978;28;20095;-66
2022/12/12 05:11:33;;;;;;;43.75;20.73;;;;;;;;;;5077205;28;20047;-67
2022/12/12 05:13:59;;;;;;;43.63;21.83;;;;;;;;;;5079901;28;20575;-67
2022/12/12 05:16:31;;;;;;;42.45;21.92;;;;;;;;;;5098965;28;20035;-67
2022/12/12 05:18:57;;;;;;;43.58;20.67;;;;;;;;;;5093727;28;20055;-66
2022/12/12 05:21:24;;;;;;;45.78;23.60;;;;;;;;;;5097327;28;20039;-67
2022/12/12 05:23:50;;;;;;;40.15;20.42;;;;;;;;;;5095225;28;20556;-67
2022/12/12 05:26:23;;;;;;;41.38;22.88;;;;;;;;;;5096154;28;20039;-67
2022/12/12 05:28:49;;;;;;;36.88;20.45;;;;;;;;;;5074056;28;20126;-66
2022/12/12 05:31:16;;;;;;;36.83;20.15;;;;;;;;;;5081037;28;20044;-67
2022/12/12 05:33:42;;;;;;;37.55;20.60;;;;;;;;;;5079818;28;20052;-67
2022/12/12 05:36:08;;;;;;;34.65;19.33;;;;;;;;;;5096137;28;20050;-66
2022/12/12 05:38:35;;;;;;;33.13;18.30;;;;;;;;;;5075837;28;20465;-67
2022/12/12 05:41:01;;;;;;;34.67;18.83;;;;;;;;;;5096738;28;20051;-66
2022/12/12 05:43:27;;;;;;;38.40;19.90;;;;;;;;;;5075946;28;20095;-67
2022/12/12 05:45:53;;;;;;;33.42;19.20;;;;;;;;;;5095842;28;20150;-66
2022/12/12 05:48:19;;;;;;;32.15;17.77;;;;;;;;;;5094948;28;20055;-66
2022/12/12 05:50:45;;;;;;;34.80;19.27;;;;;;;;;;5080487;28;20052;-67
2022/12/12 05:53:12;;;;;;;40.75;20.58;;;;;;;;;;5094801;28;20040;-66
2022/12/12 05:55:38;;;;;;;33.67;17.75;;;;;;;;;;5099609;28;20066;-67
2022/12/12 05:58:04;;;;;;;37.75;19.13;;;;;;;;;;5059055;28;20060;-67
2022/12/12 06:00:30;;;;;;;35.75;19.10;;;;;;;;;;5090155;28;20127;-67
2022/12/12 06:02:56;;;;;;;39.03;19.75;;;;;;;;;;5077126;28;20066;-67
2022/12/12 06:05:23;;;;;;;38.45;20.38;;;;;;;;;;5098223;28;20058;-66
2022/12/12 06:07:49;;;;;;;38.30;19.13;;;;;;;;;;5095820;28;20047;-67
2022/12/12 06:10:15;;;;;;;39.78;20.25;;;;;;;;;;5095860;28;20544;-67
2022/12/12 06:12:41;;;;;;;36.83;20.17;;;;;;;;;;5095727;28;20078;-67
2022/12/12 06:15:07;;;;;;;37.55;20.35;;;;;;;;;;5070427;28;20055;-66
2022/12/12 06:17:33;;;;;;;36.00;18.58;;;;;;;;;;5096231;28;20040;-67
2022/12/12 06:20:00;;;;;;;31.73;17.30;;;;;;;;;;5095547;28;20048;-67
2022/12/12 06:22:26;;;;;;;34.75;18.17;;;;;;;;;;5074116;28;20088;-67
2022/12/12 06:24:52;;;;;;;36.15;19.45;;;;;;;;;;5098998;28;20054;-67
2022/12/12 06:27:18;;;;;;;31.55;18.05;;;;;;;;;;5077391;28;20120;-67
2022/12/12 06:29:45;;;;;;;31.40;16.63;;;;;;;;;;5096633;28;20048;-67
2022/12/12 06:32:11;;;;;;;36.20;18.73;;;;;;;;;;5099784;28;20513;-67
2022/12/12 06:34:37;;;;;;;32.50;17.73;;;;;;;;;;5097472;28;20166;-67
2022/12/12 06:37:05;;;;;;;31.17;16.90;;;;;;;;;;5098603;28;20042;-66
2022/12/12 06:39:32;;;;;;;35.42;18.77;;;;;;;;;;5098409;28;20471;-67
2022/12/12 06:41:58;;;;;;;30.75;16.23;;;;;;;;;;5097898;28;20095;-66
2022/12/12 06:44:24;;;;;;;31.63;18.00;;;;;;;;;;5094428;28;21699;-66
2022/12/12 06:46:50;;;;;;;34.55;18.52;;;;;;;;;;5094570;28;20043;-66
2022/12/12 06:49:16;;;;;;;32.42;18.75;;;;;;;;;;5098726;28;20036;-66
2022/12/12 06:51:43;;;;;;;32.88;18.27;;;;;;;;;;5078512;28;20434;-66
2022/12/12 06:54:10;;;;;;;32.45;17.52;;;;;;;;;;5078581;28;20542;-67
2022/12/12 06:56:36;;;;;;;31.10;17.10;;;;;;;;;;5095826;28;20035;-66
2022/12/12 06:59:02;;;;;;;35.28;18.60;;;;;;;;;;5098160;28;20123;-67
2022/12/12 07:01:29;;;;;;;33.30;18.60;;;;;;;;;;5062412;28;20081;-66
2022/12/12 07:03:55;;;;;;;32.80;17.30;;;;;;;;;;5097617;28;20044;-66
2022/12/12 07:06:22;;;;;;;34.45;18.73;;;;;;;;;;5057746;28;20035;-67
2022/12/12 07:08:49;;;;;;;31.38;17.90;;;;;;;;;;5096117;28;20135;-66
2022/12/12 07:11:16;;;;;;;38.97;17.10;;;;;;;;;;5095580;28;20043;-66
2022/12/12 07:13:42;;;;;;;33.45;16.65;;;;;;;;;;5097078;28;20125;-66
2022/12/12 07:16:09;;;;;;;33.00;16.55;;;;;;;;;;5076202;28;20105;-66
2022/12/12 07:18:35;;;;;;;30.85;17.08;;;;;;;;;;5096497;28;20047;-66
2022/12/12 07:21:04;;;;;;;39.83;18.33;;;;;;;;;;5094822;28;20109;-66
2022/12/12 07:23:30;;;;;;;32.10;16.80;;;;;;;;;;5098715;28;20047;-67
2022/12/12 07:25:56;;;;;;;31.65;17.60;;;;;;;;;;5099707;28;20040;-65
2022/12/12 07:28:22;;;;;;;30.75;16.85;;;;;;;;;;5098180;28;20032;-66
2022/12/12 07:30:49;;;;;;;29.70;17.45;;;;;;;;;;5099316;28;20050;-65
2022/12/12 07:33:16;;;;;;;29.95;16.98;;;;;;;;;;5085576;28;20563;-66
2022/12/12 07:35:42;;;;;;;32.65;17.40;;;;;;;;;;5101657;28;20482;-66
2022/12/12 07:38:09;;;;;;;29.50;16.30;;;;;;;;;;5069441;28;20048;-65
2022/12/12 07:40:35;;;;;;;32.15;16.95;;;;;;;;;;5098108;28;20059;-67
2022/12/12 07:43:02;;;;;;;31.10;16.23;;;;;;;;;;5103710;28;20067;-67
2022/12/12 07:45:28;;;;;;;31.02;16.30;;;;;;;;;;5099478;28;20564;-67
2022/12/12 07:47:54;;;;;;;30.42;17.90;;;;;;;;;;5102980;28;20036;-67
2022/12/12 07:50:21;;;;;;;29.98;16.98;;;;;;;;;;5102151;28;20044;-67
2022/12/12 07:52:47;;;;;;;30.92;17.95;;;;;;;;;;5082079;28;20066;-67
2022/12/12 07:55:14;;;;;;;31.65;17.85;;;;;;;;;;5099049;28;20035;-67
2022/12/12 07:57:40;;;;;;;33.38;18.55;;;;;;;;;;5100415;28;20651;-67
2022/12/12 08:00:07;;;;;;;33.78;17.67;;;;;;;;;;5098955;28;20055;-66
2022/12/12 08:02:33;;;;;;;30.85;17.30;;;;;;;;;;5105518;28;20044;-76
2022/12/12 08:04:59;;;;;;;30.40;16.83;;;;;;;;;;5073399;28;20491;-66
2022/12/12 08:07:25;;;;;;;30.17;16.52;;;;;;;;;;5088407;28;20452;-67
2022/12/12 08:09:52;;;;;;;30.83;16.90;;;;;;;;;;5103263;28;20063;-66
2022/12/12 08:12:18;;;;;;;30.02;17.05;;;;;;;;;;5078119;28;20055;-66
2022/12/12 08:14:44;;;;;;;31.55;17.45;;;;;;;;;;5077104;28;20076;-66
2022/12/12 08:17:10;;;;;;;29.52;17.08;;;;;;;;;;5095263;28;20040;-67
2022/12/12 08:19:36;;;;;;;28.77;15.85;;;;;;;;;;5091614;27;20086;-66
2022/12/12 08:22:03;;;;;;;28.63;17.15;;;;;;;;;;5081416;28;20071;-67
2022/12/12 08:24:29;;;;;;;29.80;16.52;;;;;;;;;;5084411;28;20043;-68
2022/12/12 08:26:55;;;;;;;28.23;15.63;;;;;;;;;;5101958;28;20050;-66
2022/12/12 08:29:22;;;;;;;28.55;16.40;;;;;;;;;;5099260;28;20647;-66
2022/12/12 08:31:48;;;;;;;30.83;17.33;;;;;;;;;;5101780;28;20047;-66
2022/12/12 08:34:14;;;;;;;28.95;15.95;;;;;;;;;;5099948;28;20055;-66
2022/12/12 08:36:41;;;;;;;27.73;16.48;;;;;;;;;;5100625;28;20608;-66
2022/12/12 08:39:08;;;;;;;28.23;16.13;;;;;;;;;;5091448;28;20040;-66
2022/12/12 08:41:35;;;;;;;29.30;16.00;;;;;;;;;;5100162;28;20055;-66
2022/12/12 08:44:01;;;;;;;28.65;15.73;;;;;;;;;;5101051;28;20469;-66
2022/12/12 08:46:28;;;;;;;27.00;16.02;;;;;;;;;;5083012;28;20120;-66
2022/12/12 08:48:54;;;;;;;29.20;17.15;;;;;;;;;;5081602;28;20127;-66
2022/12/12 08:51:21;;;;;;;29.70;16.00;;;;;;;;;;5080979;28;20039;-66
2022/12/12 08:53:47;;;;;;;32.92;16.73;;;;;;;;;;5100689;28;20098;-66
2022/12/12 08:56:14;;;;;;;30.65;16.83;;;;;;;;;;5079506;28;20144;-66
2022/12/12 08:58:40;;;;;;;31.45;17.60;;;;;;;;;;5081204;28;20052;-66
2022/12/12 09:01:11;;;;;;;29.75;16.35;;;;;;;;;;5078722;28;20079;-66
2022/12/12 09:03:38;;;;;;;28.90;15.93;;;;;;;;;;5074958;28;20494;-66
2022/12/12 09:06:06;;;;;;;29.25;16.95;;;;;;;;;;5063954;28;20046;-66
2022/12/12 09:08:33;;;;;;;30.63;16.83;;;;;;;;;;5097421;28;20052;-66
2022/12/12 09:10:59;;;;;;;29.90;17.45;;;;;;;;;;5073897;28;20044;-66
2022/12/12 09:13:26;;;;;;;29.80;16.67;;;;;;;;;;5077908;28;20368;-66
2022/12/12 09:15:52;;;;;;;28.48;15.80;;;;;;;;;;5097105;28;20495;-66
2022/12/12 09:18:19;;;;;;;30.20;17.27;;;;;;;;;;5094095;28;20268;-66
2022/12/12 09:20:50;;;;;;;33.15;17.23;;;;;;;;;;5093105;28;20051;-66
2022/12/12 09:23:16;;;;;;;28.20;16.40;;;;;;;;;;5095639;28;20051;-66
2022/12/12 09:25:42;;;;;;;31.52;17.13;;;;;;;;;;5096423;28;20134;-66
2022/12/12 09:28:09;;;;;;;33.70;18.50;;;;;;;;;;5097474;28;20186;-67
2022/12/12 09:30:35;;;;;;;31.83;17.60;;;;;;;;;;5100149;28;20035;-67
2022/12/12 09:33:01;;;;;;;31.50;16.88;;;;;;;;;;5100855;28;20322;-67
2022/12/12 09:35:27;;;;;;;33.30;17.85;;;;;;;;;;5082757;28;20494;-67
2022/12/12 09:37:54;;;;;;;32.20;17.42;;;;;;;;;;5101984;28;20043;-67
2022/12/12 09:40:22;;;;;;;35.33;17.98;;;;;;;;;;5085996;28;20044;-67
2022/12/12 09:42:50;;;;;;;32.28;18.00;;;;;;;;;;5102118;28;20094;-67
2022/12/12 09:45:16;;;;;;;34.20;18.30;;;;;;;;;;5096759;28;20123;-67
2022/12/12 09:47:45;;;;;;;34.17;18.40;;;;;;;;;;5081178;28;20063;-67
2022/12/12 09:50:25;;;;;;;31.30;17.30;;;;;;;;;;5083277;28;20075;-67
2022/12/12 09:52:54;;;;;;;33.28;17.83;;;;;;;;;;5099868;28;20055;-67
2022/12/12 09:55:20;;;;;;;32.28;17.35;;;;;;;;;;5084228;28;20079;-67
2022/12/12 09:57:56;;;;;;;30.92;17.55;;;;;;;;;;5103048;28;20123;-67
2022/12/12 10:00:22;;;;;;;37.78;19.52;;;;;;;;;;5084058;28;20044;-67
2022/12/12 10:02:51;;;;;;;31.70;18.08;;;;;;;;;;5083439;28;20532;-67
2022/12/12 10:05:29;;;;;;;36.38;19.30;;;;;;;;;;5067036;28;20039;-67
2022/12/12 10:07:55;;;;;;;37.67;19.30;;;;;;;;;;5082848;28;20054;-67
2022/12/12 10:10:25;;;;;;;34.40;19.88;;;;;;;;;;5103849;28;20500;-67
2022/12/12 10:12:51;;;;;;;37.97;19.80;;;;;;;;;;5101911;28;20070;-67
2022/12/12 10:15:26;;;;;;;36.28;19.33;;;;;;;;;;5081231;28;20039;-68
2022/12/12 10:17:55;;;;;;;36.78;19.40;;;;;;;;;;5098676;28;20031;-67
2022/12/12 10:20:23;;;;;;;34.17;18.70;;;;;;;;;;5080731;28;20059;-67
2022/12/12 10:22:55;;;;;;;36.95;19.75;;;;;;;;;;5082777;28;20051;-67
2022/12/12 10:25:28;;;;;;;35.40;19.23;;;;;;;;;;5102897;28;20180;-78
2022/12/12 10:28:04;;;;;;;29.83;15.75;;;;;;;;;;5099180;28;20452;-67
2022/12/12 10:30:33;;;;;;;36.20;19.27;;;;;;;;;;5098419;28;20040;-66
2022/12/12 10:33:06;;;;;;;34.10;17.60;;;;;;;;;;5081403;28;20470;-67
2022/12/12 10:35:43;;;;;;;38.08;20.08;;;;;;;;;;5100595;28;20074;-67
2022/12/12 10:38:17;;;;;;;35.38;19.48;;;;;;;;;;5102043;28;20097;-67
2022/12/12 10:40:51;;;;;;;34.63;18.63;;;;;;;;;;5082193;28;20134;-67
2022/12/12 10:43:21;;;;;;;36.50;18.52;;;;;;;;;;5099850;28;20044;-67
2022/12/12 10:45:53;;;;;;;37.88;20.08;;;;;;;;;;5101815;28;20040;-68
2022/12/12 10:48:20;;;;;;;34.25;20.48;;;;;;;;;;5100519;28;20423;-66
2022/12/12 10:50:49;;;;;;;33.45;19.13;;;;;;;;;;5081736;28;20131;-66
2022/12/12 10:53:15;;;;;;;38.20;19.70;;;;;;;;;;5096219;28;20044;-66
2022/12/12 10:55:41;;;;;;;36.25;20.20;;;;;;;;;;5082002;28;20128;-67
2022/12/12 10:58:08;;;;;;;34.95;18.33;;;;;;;;;;5083152;28;20111;-64
2022/12/12 11:00:35;;;;;;;37.45;19.73;;;;;;;;;;5081149;28;20043;-64
2022/12/12 11:03:12;;;;;;;30.92;19.48;;;;;;;;;;5080972;28;21310;-66
2022/12/12 11:05:40;;;;;;;35.80;20.30;;;;;;;;;;5101971;28;20129;-66
2022/12/12 11:08:18;;;;;;;34.63;20.50;;;;;;;;;;5105314;28;20048;-66
2022/12/12 11:10:44;;;;;;;33.25;19.17;;;;;;;;;;5104449;28;20044;-66
2022/12/12 11:13:10;;;;;;;33.35;19.17;;;;;;;;;;5107071;27;20051;-66
2022/12/12 11:15:38;;;;;;;31.10;20.13;;;;;;;;;;5105219;27;20043;-66
2022/12/12 11:18:04;;;;;;;38.40;20.40;;;;;;;;;;5086322;28;20196;-66
2022/12/12 11:20:30;;;;;;;36.78;20.30;;;;;;;;;;5088397;28;20516;-66
2022/12/12 11:22:57;;;;;;;38.63;20.10;;;;;;;;;;5105342;28;20080;-67
2022/12/12 11:25:30;;;;;;;33.38;18.48;;;;;;;;;;5106436;28;20047;-66
2022/12/12 11:27:58;;;;;;;33.57;19.77;;;;;;;;;;5105107;28;20048;-66
2022/12/12 11:30:30;;;;;;;31.77;19.63;;;;;;;;;;5104674;28;20617;-68
2022/12/12 11:32:57;;;;;;;35.75;18.75;;;;;;;;;;5106312;28;20054;-66
2022/12/12 11:35:24;;;;;;;28.55;18.15;;;;;;;;;;5087960;28;20035;-68
2022/12/12 11:37:53;;;;;;;29.92;18.02;;;;;;;;;;5094964;27;20166;-66
2022/12/12 11:40:24;;;;;;;29.42;18.73;;;;;;;;;;5106203;28;20036;-66
2022/12/12 11:42:51;;;;;;;26.48;17.30;;;;;;;;;;5106199;28;20498;-66
2022/12/12 11:45:17;;;;;;;31.00;17.60;;;;;;;;;;5099917;28;20051;-67
2022/12/12 11:47:44;;;;;;;28.42;18.05;;;;;;;;;;5104316;28;20036;-67
2022/12/12 11:50:16;;;;;;;32.13;18.83;;;;;;;;;;5084989;28;20440;-67
2022/12/12 11:52:43;;;;;;;29.17;18.33;;;;;;;;;;5105094;28;20047;-67
2022/12/12 11:55:13;;;;;;;30.13;18.30;;;;;;;;;;5086291;28;20047;-67
2022/12/12 11:57:45;;;;;;;32.28;18.60;;;;;;;;;;5104264;28;20043;-70
2022/12/12 12:00:16;;;;;;;27.67;17.15;;;;;;;;;;5101210;28;20078;-67
2022/12/12 12:02:53;;;;;;;27.20;16.55;;;;;;;;;;5102686;28;20057;-67
2022/12/12 12:05:25;;;;;;;30.45;17.70;;;;;;;;;;5105450;28;20044;-67
2022/12/12 12:08:08;;;;;;;33.42;18.70;;;;;;;;;;5103353;28;20048;-67
2022/12/12 12:10:35;;;;;;;30.42;18.00;;;;;;;;;;5105308;28;20050;-67
2022/12/12 12:13:12;;;;;;;30.15;17.65;;;;;;;;;;5079518;28;20074;-67
2022/12/12 12:15:43;;;;;;;30.08;17.20;;;;;;;;;;5077737;28;20082;-66
2022/12/12 12:18:20;;;;;;;29.55;18.33;;;;;;;;;;5079888;28;20077;-67
2022/12/12 12:20:59;;;;;;;30.02;18.15;;;;;;;;;;5081882;28;20507;-65
2022/12/12 12:23:25;;;;;;;29.58;16.60;;;;;;;;;;5088002;28;20051;-66
2022/12/12 12:25:59;;;;;;;27.77;17.33;;;;;;;;;;5101165;28;20034;-66
2022/12/12 12:28:29;;;;;;;28.00;17.08;;;;;;;;;;5107649;28;20130;-67
2022/12/12 12:31:04;;;;;;;24.95;14.60;;;;;;;;;;5107219;28;20052;-66
2022/12/12 12:33:46;;;;;;;29.23;17.17;;;;;;;;;;5101634;28;20050;-66
2022/12/12 12:36:16;;;;;;;27.50;16.75;;;;;;;;;;5107897;28;20475;-67
2022/12/12 12:38:52;;;;;;;28.25;16.35;;;;;;;;;;5103872;28;20036;-67
2022/12/12 12:41:21;;;;;;;29.30;16.42;;;;;;;;;;5100001;28;20054;-67
2022/12/12 12:43:47;;;;;;;27.90;15.68;;;;;;;;;;5104085;28;20399;-67
2022/12/12 12:46:20;;;;;;;30.50;16.58;;;;;;;;;;5104707;28;20063;-66
2022/12/12 12:48:49;;;;;;;25.20;14.27;;;;;;;;;;5102753;28;20065;-67
2022/12/12 12:51:24;;;;;;;24.05;14.15;;;;;;;;;;5084290;28;20050;-67
2022/12/12 12:53:55;;;;;;;24.13;14.27;;;;;;;;;;5085819;28;20051;-68
2022/12/12 12:56:24;;;;;;;23.65;14.65;;;;;;;;;;5103053;28;20071;-67
2022/12/12 12:58:52;;;;;;;24.67;15.27;;;;;;;;;;5103799;28;20118;-66
2022/12/12 13:01:24;;;;;;;25.13;14.90;;;;;;;;;;5105566;28;20047;-67
2022/12/12 13:03:55;;;;;;;24.92;14.30;;;;;;;;;;5102207;28;20046;-67
2022/12/12 13:06:31;;;;;;;23.42;14.00;;;;;;;;;;5084925;28;20087;-67
2022/12/12 13:09:01;;;;;;;25.13;14.43;;;;;;;;;;5099190;28;20128;-67
2022/12/12 13:11:36;;;;;;;22.00;13.05;;;;;;;;;;5102878;28;20035;-67
2022/12/12 13:14:15;;;;;;;21.98;12.77;;;;;;;;;;5102483;28;20039;-67
2022/12/12 13:16:42;;;;;;;21.25;13.02;;;;;;;;;;5102069;28;20031;-67
2022/12/12 13:19:12;;;;;;;25.70;13.52;;;;;;;;;;5102937;28;20415;-67
2022/12/12 13:21:43;;;;;;;20.80;12.55;;;;;;;;;;5102900;28;20130;-67
2022/12/12 13:24:18;;;;;;;22.30;13.18;;;;;;;;;;5101713;28;20420;-67
2022/12/12 13:26:50;;;;;;;23.05;13.98;;;;;;;;;;5083115;28;20039;-67
2022/12/12 13:29:16;;;;;;;22.45;12.80;;;;;;;;;;5100933;28;20040;-67
2022/12/12 13:31:56;;;;;;;22.48;14.07;;;;;;;;;;5084937;28;20058;-67
2022/12/12 13:34:25;;;;;;;21.92;13.18;;;;;;;;;;5093822;28;20124;-67
2022/12/12 13:36:52;;;;;;;20.27;12.07;;;;;;;;;;5104105;28;20162;-66
2022/12/12 13:39:29;;;;;;;20.80;13.05;;;;;;;;;;5086342;28;20057;-66
2022/12/12 13:41:58;;;;;;;20.38;13.38;;;;;;;;;;5104752;28;20083;-67
2022/12/12 13:44:33;;;;;;;22.05;13.02;;;;;;;;;;5083693;28;20069;-67
2022/12/12 13:46:59;;;;;;;20.10;13.20;;;;;;;;;;5102385;28;20048;-67
2022/12/12 13:49:28;;;;;;;24.08;13.32;;;;;;;;;;5102527;28;20397;-67
2022/12/12 13:52:14;;;;;;;19.05;12.07;;;;;;;;;;5104176;28;20449;-67
2022/12/12 13:54:42;;;;;;;22.60;13.93;;;;;;;;;;5103301;28;20054;-67
2022/12/12 13:57:11;;;;;;;23.20;13.15;;;;;;;;;;5102704;28;20054;-67
2022/12/12 13:59:53;;;;;;;21.95;13.10;;;;;;;;;;5098788;28;20072;-67
2022/12/12 14:02:26;;;;;;;23.02;13.30;;;;;;;;;;5091660;28;20063;-67
2022/12/12 14:05:07;;;;;;;21.23;11.77;;;;;;;;;;5077652;28;20526;-69
2022/12/12 14:07:34;;;;;;;25.73;13.75;;;;;;;;;;5078349;28;20492;-67
2022/12/12 14:10:01;;;;;;;21.25;12.63;;;;;;;;;;5083302;28;20075;-67
2022/12/12 14:12:29;;;;;;;21.20;13.15;;;;;;;;;;5098453;28;20397;-67
2022/12/12 14:14:58;;;;;;;20.45;12.57;;;;;;;;;;5096132;28;20312;-70
2022/12/12 14:17:26;;;;;;;21.40;12.80;;;;;;;;;;5100594;28;20047;-68
2022/12/12 14:19:53;;;;;;;21.92;12.82;;;;;;;;;;5096457;28;20036;-68
2022/12/12 14:22:27;;;;;;;24.90;13.23;;;;;;;;;;5093693;28;20074;-68
2022/12/12 14:24:54;;;;;;;24.90;13.07;;;;;;;;;;5094043;28;20046;-68
2022/12/12 14:27:40;;;;;;;23.27;13.15;;;;;;;;;;5055747;28;20039;-67
2022/12/12 14:30:16;;;;;;;23.48;13.40;;;;;;;;;;5093629;28;20130;-67
2022/12/12 14:32:47;;;;;;;24.25;12.45;;;;;;;;;;5097577;28;20055;-68
2022/12/12 14:35:14;;;;;;;23.90;13.85;;;;;;;;;;5097089;28;20122;-68
2022/12/12 14:37:58;;;;;;;23.30;12.68;;;;;;;;;;5076512;28;20048;-85
2022/12/12 14:40:32;;;;;;;23.83;12.82;;;;;;;;;;5096038;28;20147;-67